Time;durP1;ratioP1;P1;durP2;ratioP2;P2;SDS_P1;SDS_P2;PMS_P1;PMS_P2;Temp;Humidity;BMP_temperature;BMP_pressure;BME280_temperature;BME280_humidity;BME280_pressure;Samples;Min_cycle;Max_cycle;Signal;HPM_P1;HPM_P2
2022/08/17 00:00:43;;;;;;;5.95;2.95;;;23.50;63.10;;;;;;4966311;28;20492;-60
2022/08/17 00:03:17;;;;;;;5.35;2.67;;;23.50;63.10;;;;;;4963044;28;20518;-59
2022/08/17 00:05:45;;;;;;;5.97;2.83;;;23.50;63.10;;;;;;4959953;28;20061;-60
2022/08/17 00:08:11;;;;;;;5.80;2.92;;;23.50;63.10;;;;;;4962953;28;20102;-61
2022/08/17 00:10:37;;;;;;;5.38;2.67;;;23.50;63.10;;;;;;4984494;28;20050;-60
2022/08/17 00:13:10;;;;;;;4.82;2.80;;;23.50;63.00;;;;;;4961568;28;20054;-60
2022/08/17 00:15:36;;;;;;;6.38;3.05;;;23.50;63.00;;;;;;4963231;28;20407;-60
2022/08/17 00:18:02;;;;;;;5.80;2.90;;;23.50;63.00;;;;;;4960523;28;20046;-60
2022/08/17 00:20:28;;;;;;;5.20;2.90;;;23.50;62.90;;;;;;4959317;28;20543;-60
2022/08/17 00:23:14;;;;;;;4.57;2.70;;;23.50;63.10;;;;;;4962998;28;20092;-60
2022/08/17 00:25:41;;;;;;;6.90;3.10;;;23.50;63.00;;;;;;4959976;28;20031;-60
2022/08/17 00:28:07;;;;;;;6.13;3.00;;;23.50;62.90;;;;;;4960947;28;20019;-60
2022/08/17 00:30:34;;;;;;;6.30;2.60;;;23.50;63.00;;;;;;4963407;28;20459;-60
2022/08/17 00:33:00;;;;;;;7.50;2.83;;;23.50;62.90;;;;;;4958491;28;20039;-60
2022/08/17 00:35:26;;;;;;;5.25;2.78;;;23.50;63.00;;;;;;4964569;28;20046;-60
2022/08/17 00:37:52;;;;;;;5.38;2.67;;;23.50;63.90;;;;;;4959537;28;20399;-60
2022/08/17 00:40:18;;;;;;;4.60;2.47;;;23.50;62.90;;;;;;4959804;28;20023;-60
2022/08/17 00:42:44;;;;;;;5.63;2.95;;;23.50;62.90;;;;;;4958637;28;20035;-60
2022/08/17 00:45:11;;;;;;;5.90;2.58;;;23.50;63.00;;;;;;4959438;28;20034;-60
2022/08/17 00:47:37;;;;;;;8.30;2.78;;;23.40;62.80;;;;;;4958773;28;20058;-60
2022/08/17 00:50:04;;;;;;;6.10;2.67;;;23.50;62.90;;;;;;4960154;28;20582;-60
2022/08/17 00:52:33;;;;;;;6.32;2.85;;;23.50;62.90;;;;;;4957996;28;20687;-60
2022/08/17 00:54:59;;;;;;;6.03;2.78;;;23.50;62.80;;;;;;4962527;28;20404;-60
2022/08/17 00:57:45;;;;;;;4.63;2.80;;;23.40;62.70;;;;;;4942461;28;20111;-60
2022/08/17 01:00:15;;;;;;;4.90;2.60;;;23.40;62.90;;;;;;4944593;28;20026;-60
2022/08/17 01:02:42;;;;;;;5.13;2.70;;;23.40;62.70;;;;;;4982793;28;20110;-60
2022/08/17 01:05:08;;;;;;;4.25;2.60;;;23.40;62.70;;;;;;4959619;28;20080;-60
2022/08/17 01:07:34;;;;;;;5.57;2.63;;;23.40;62.70;;;;;;4982697;28;20114;-60
2022/08/17 01:09:59;;;;;;;5.30;2.67;;;23.40;62.80;;;;;;4959536;28;20135;-60
2022/08/17 01:12:25;;;;;;;4.53;2.40;;;23.40;62.70;;;;;;4967131;28;20063;-60
2022/08/17 01:14:51;;;;;;;4.32;2.50;;;23.40;62.80;;;;;;4963094;28;20185;-60
2022/08/17 01:17:16;;;;;;;6.30;2.83;;;23.40;62.70;;;;;;4961376;28;20034;-60
2022/08/17 01:19:42;;;;;;;5.88;2.60;;;23.40;62.70;;;;;;4960696;28;20027;-61
2022/08/17 01:22:10;;;;;;;5.05;2.40;;;23.40;62.80;;;;;;4981360;28;20159;-60
2022/08/17 01:24:41;;;;;;;6.32;2.78;;;23.40;62.70;;;;;;4963589;28;20031;-60
2022/08/17 01:27:06;;;;;;;5.15;2.55;;;23.40;62.80;;;;;;4981637;28;20080;-59
2022/08/17 01:29:32;;;;;;;4.70;2.70;;;23.40;62.60;;;;;;4961096;28;20031;-60
2022/08/17 01:32:01;;;;;;;5.15;2.78;;;23.40;62.70;;;;;;4980240;28;20035;-60
2022/08/17 01:34:26;;;;;;;6.18;2.80;;;23.40;62.60;;;;;;4980564;28;20031;-60
2022/08/17 01:36:52;;;;;;;4.13;2.45;;;23.40;62.70;;;;;;4957615;28;20034;-60
2022/08/17 01:39:39;;;;;;;3.60;2.40;;;23.30;62.60;;;;;;4956616;28;20078;-60
2022/08/17 01:42:17;;;;;;;4.97;2.70;;;23.40;62.70;;;;;;4960731;28;20369;-60
2022/08/17 01:44:43;;;;;;;4.03;2.40;;;23.40;62.60;;;;;;4959516;28;20465;-60
2022/08/17 01:47:08;;;;;;;5.10;2.30;;;23.40;62.60;;;;;;4962193;28;20042;-60
2022/08/17 01:49:34;;;;;;;5.22;2.70;;;23.40;62.70;;;;;;4963251;28;20403;-60
2022/08/17 01:52:05;;;;;;;4.60;2.70;;;23.30;63.60;;;;;;4958100;28;20404;-61
2022/08/17 01:54:31;;;;;;;4.55;2.30;;;23.40;62.60;;;;;;4959433;28;20045;-60
2022/08/17 01:56:56;;;;;;;4.50;2.60;;;23.40;62.60;;;;;;4957698;28;20027;-60
2022/08/17 01:59:22;;;;;;;4.43;2.30;;;23.40;62.60;;;;;;4960256;28;20035;-60
2022/08/17 02:01:48;;;;;;;4.68;2.50;;;23.40;62.60;;;;;;4961609;28;20019;-60
2022/08/17 02:04:13;;;;;;;5.47;2.60;;;23.40;62.60;;;;;;4960714;28;20177;-60
2022/08/17 02:06:40;;;;;;;5.22;2.60;;;23.30;62.60;;;;;;4962098;28;20088;-60
2022/08/17 02:09:06;;;;;;;5.10;2.47;;;23.30;62.50;;;;;;4958438;28;20047;-60
2022/08/17 02:11:33;;;;;;;4.38;2.22;;;23.30;62.50;;;;;;4957962;28;20023;-60
2022/08/17 02:13:58;;;;;;;5.13;2.60;;;23.30;62.50;;;;;;4957165;28;20513;-61
2022/08/17 02:16:24;;;;;;;4.72;2.53;;;23.30;62.50;;;;;;4959207;28;20026;-60
2022/08/17 02:18:50;;;;;;;3.92;2.28;;;23.30;62.50;;;;;;4960026;28;20031;-60
2022/08/17 02:21:15;;;;;;;4.53;2.25;;;23.30;62.50;;;;;;4958738;28;20030;-60
2022/08/17 02:23:43;;;;;;;2.97;2.20;;;23.30;62.50;;;;;;4957622;28;20027;-60
2022/08/17 02:26:09;;;;;;;4.63;2.40;;;23.30;62.50;;;;;;4972048;28;20086;-60
2022/08/17 02:28:35;;;;;;;4.75;2.40;;;23.30;62.50;;;;;;4961866;28;20403;-60
2022/08/17 02:31:08;;;;;;;4.63;2.50;;;23.30;62.50;;;;;;4957936;28;20030;-60
2022/08/17 02:33:34;;;;;;;5.47;2.40;;;23.30;62.50;;;;;;4959536;28;20039;-60
2022/08/17 02:36:01;;;;;;;3.75;2.25;;;23.20;62.50;;;;;;4957745;28;20517;-60
2022/08/17 02:38:27;;;;;;;3.67;2.33;;;23.30;62.50;;;;;;4958732;28;20055;-60
2022/08/17 02:40:53;;;;;;;4.40;2.60;;;23.20;62.40;;;;;;4956543;28;20134;-60
2022/08/17 02:43:18;;;;;;;4.32;2.50;;;23.30;62.40;;;;;;4960465;28;20031;-60
2022/08/17 02:45:44;;;;;;;5.28;2.60;;;23.20;62.30;;;;;;4959520;28;20031;-60
2022/08/17 02:48:10;;;;;;;4.15;2.30;;;23.30;62.40;;;;;;4958655;28;20510;-60
2022/08/17 02:50:35;;;;;;;3.75;2.42;;;23.20;62.30;;;;;;4957225;28;20023;-60
2022/08/17 02:53:02;;;;;;;4.32;2.40;;;23.20;62.30;;;;;;4957464;28;20432;-60
2022/08/17 02:55:30;;;;;;;3.70;2.20;;;23.20;62.30;;;;;;4961521;28;20137;-60
2022/08/17 02:57:55;;;;;;;3.55;2.22;;;23.20;62.30;;;;;;4966442;28;20062;-60
2022/08/17 03:00:29;;;;;;;3.70;2.50;;;23.20;62.40;;;;;;4965217;28;20125;-60
2022/08/17 03:02:55;;;;;;;2.83;2.20;;;23.20;62.30;;;;;;4963213;28;20027;-60
2022/08/17 03:05:22;;;;;;;3.67;2.35;;;23.20;62.30;;;;;;4964881;28;20101;-60
2022/08/17 03:07:48;;;;;;;4.68;2.40;;;23.20;62.30;;;;;;4961675;28;20031;-60
2022/08/17 03:10:16;;;;;;;4.03;2.45;;;23.20;62.40;;;;;;4963905;28;20023;-60
2022/08/17 03:12:42;;;;;;;4.95;2.35;;;23.20;62.30;;;;;;4967368;28;20165;-59
2022/08/17 03:15:11;;;;;;;3.50;2.28;;;23.20;62.30;;;;;;4963246;28;20034;-60
2022/08/17 03:17:36;;;;;;;4.97;2.28;;;23.20;62.30;;;;;;4964339;28;20043;-60
2022/08/17 03:20:04;;;;;;;4.05;2.20;;;23.20;62.30;;;;;;4961938;28;20061;-60
2022/08/17 03:22:30;;;;;;;3.53;2.17;;;23.20;62.30;;;;;;4983821;28;20039;-60
2022/08/17 03:24:56;;;;;;;4.57;2.30;;;23.20;62.30;;;;;;4944167;28;20056;-60
2022/08/17 03:27:21;;;;;;;3.92;2.20;;;23.20;62.30;;;;;;4961940;28;20119;-60
2022/08/17 03:29:47;;;;;;;3.92;2.50;;;23.20;62.30;;;;;;4962128;28;20030;-60
2022/08/17 03:32:14;;;;;;;3.80;2.20;;;23.20;62.30;;;;;;4965025;28;20034;-60
2022/08/17 03:34:40;;;;;;;4.05;2.35;;;23.20;62.30;;;;;;4960821;28;20039;-60
2022/08/17 03:37:05;;;;;;;3.65;2.10;;;23.20;62.30;;;;;;4968685;28;20110;-60
2022/08/17 03:39:31;;;;;;;5.40;2.50;;;23.20;62.40;;;;;;4963820;28;20033;-60
2022/08/17 03:42:06;;;;;;;3.40;2.20;;;23.20;63.40;;;;;;4960928;28;20035;-60
2022/08/17 03:44:32;;;;;;;3.55;2.13;;;23.20;62.30;;;;;;4961685;28;20063;-60
2022/08/17 03:57:54;;;;;;;5.18;2.28;;;23.20;62.40;;;;;;4960527;28;20066;-60
2022/08/17 04:00:19;;;;;;;4.30;2.40;;;23.20;62.40;;;;;;4959084;28;20055;-61
2022/08/17 04:02:45;;;;;;;5.70;2.50;;;23.10;62.40;;;;;;4962160;28;20062;-61
2022/08/17 04:05:11;;;;;;;3.63;2.28;;;23.20;62.60;;;;;;4987235;28;20105;-61
2022/08/17 04:07:36;;;;;;;5.47;2.40;;;23.20;62.60;;;;;;4961567;28;20023;-62
2022/08/17 04:10:03;;;;;;;3.67;2.30;;;23.20;62.70;;;;;;4961909;28;20117;-61
2022/08/17 04:12:33;;;;;;;3.67;2.20;;;23.20;62.80;;;;;;4960914;28;20034;-60
2022/08/17 04:14:58;;;;;;;3.47;2.15;;;23.20;62.70;;;;;;4929696;28;20050;-60
2022/08/17 04:17:25;;;;;;;3.10;2.22;;;23.20;62.70;;;;;;4962356;28;20027;-61
2022/08/17 04:19:52;;;;;;;4.50;2.42;;;23.20;62.70;;;;;;4966103;28;20043;-62
2022/08/17 04:22:18;;;;;;;5.75;2.35;;;23.20;62.80;;;;;;4963640;28;20114;-61
2022/08/17 04:24:44;;;;;;;4.47;2.20;;;23.20;62.80;;;;;;4959458;28;20568;-60
2022/08/17 04:27:09;;;;;;;3.58;2.20;;;23.20;62.80;;;;;;4960300;28;20506;-61
2022/08/17 04:29:36;;;;;;;4.25;2.40;;;23.20;62.80;;;;;;4960637;28;20165;-61
2022/08/17 04:32:02;;;;;;;3.20;2.30;;;23.20;62.90;;;;;;4959923;28;20058;-60
2022/08/17 04:34:27;;;;;;;3.97;2.47;;;23.20;62.90;;;;;;4962165;28;20073;-60
2022/08/17 04:36:53;;;;;;;3.90;2.25;;;23.20;62.80;;;;;;4961680;28;20067;-61
2022/08/17 04:39:19;;;;;;;3.83;2.20;;;23.20;62.90;;;;;;4960611;28;20046;-60
2022/08/17 04:44:31;;;;;;;4.18;2.40;;;23.20;62.80;;;;;;4963928;28;20066;-60
2022/08/17 04:46:57;;;;;;;3.08;2.20;;;23.20;62.80;;;;;;4961877;28;20035;-59
2022/08/17 04:49:22;;;;;;;3.85;2.20;;;23.20;62.90;;;;;;4957305;28;20027;-60
2022/08/17 04:51:48;;;;;;;3.78;2.38;;;23.20;62.90;;;;;;4963534;28;20122;-60
2022/08/17 04:54:16;;;;;;;4.13;2.33;;;23.20;62.90;;;;;;4959121;28;20089;-61
2022/08/17 04:56:42;;;;;;;3.15;2.20;;;23.20;63.10;;;;;;4967164;28;20053;-60
2022/08/17 04:59:16;;;;;;;4.40;2.30;;;23.20;63.10;;;;;;4960140;28;20026;-60
2022/08/17 05:01:44;;;;;;;7.07;2.40;;;23.10;63.10;;;;;;4964890;28;20031;-61
2022/08/17 05:04:11;;;;;;;4.93;2.28;;;23.20;63.20;;;;;;4960632;28;20057;-60
2022/08/17 05:06:37;;;;;;;4.05;2.30;;;23.20;62.90;;;;;;4961180;28;20035;-60
2022/08/17 05:09:03;;;;;;;4.93;2.08;;;23.20;62.90;;;;;;4961701;28;20089;-60
2022/08/17 05:11:29;;;;;;;4.45;2.42;;;23.20;62.90;;;;;;4963574;28;20023;-61
2022/08/17 05:13:56;;;;;;;3.95;2.10;;;23.20;62.90;;;;;;4962397;28;20031;-60
2022/08/17 05:16:22;;;;;;;5.85;2.53;;;23.20;63.00;;;;;;4967527;28;20386;-60
2022/08/17 05:18:48;;;;;;;3.45;2.15;;;23.20;62.90;;;;;;4985785;28;20443;-60
2022/08/17 05:21:13;;;;;;;5.18;2.10;;;23.20;63.10;;;;;;4961441;28;20059;-60
2022/08/17 05:23:39;;;;;;;2.90;2.13;;;23.20;63.10;;;;;;4965765;28;20380;-61
2022/08/17 05:26:05;;;;;;;3.53;2.20;;;23.20;63.20;;;;;;4963766;28;20051;-61
2022/08/17 05:28:31;;;;;;;4.18;2.20;;;23.20;63.10;;;;;;4962675;28;20037;-60
2022/08/17 05:30:58;;;;;;;3.28;2.20;;;23.20;62.90;;;;;;4964541;28;20027;-61
2022/08/17 05:33:29;;;;;;;3.80;2.08;;;23.10;62.90;;;;;;4964475;28;20031;-61
2022/08/17 05:35:56;;;;;;;4.22;2.20;;;23.20;62.90;;;;;;4965738;28;20177;-61
2022/08/17 05:38:23;;;;;;;3.63;2.08;;;23.20;62.90;;;;;;4964046;28;20562;-61
2022/08/17 05:40:49;;;;;;;3.58;1.90;;;23.10;62.90;;;;;;4967640;28;20114;-60
2022/08/17 05:43:21;;;;;;;3.58;2.17;;;23.10;62.80;;;;;;4958753;28;20102;-61
2022/08/17 05:45:54;;;;;;;4.07;2.28;;;23.10;62.60;;;;;;4961182;28;20148;-61
2022/08/17 05:48:20;;;;;;;3.65;2.00;;;23.10;62.70;;;;;;4962700;28;20035;-61
2022/08/17 05:51:17;;;;;;;3.03;1.92;;;23.10;62.70;;;;;;4963036;28;20082;-60
2022/08/17 05:53:43;;;;;;;2.50;1.92;;;23.10;62.70;;;;;;4960302;28;20076;-61
2022/08/17 05:56:38;;;;;;;3.83;2.10;;;23.10;62.70;;;;;;4966004;28;20486;-61
2022/08/17 05:59:29;;;;;;;4.25;2.30;;;23.10;62.70;;;;;;4980436;28;20025;-60
2022/08/17 06:02:01;;;;;;;3.60;2.15;;;23.10;62.70;;;;;;4965355;28;20045;-61
2022/08/17 06:04:35;;;;;;;2.67;2.10;;;23.10;62.70;;;;;;4979918;28;20117;-61
2022/08/17 06:07:11;;;;;;;4.00;2.20;;;23.00;62.60;;;;;;4961422;28;20054;-61
2022/08/17 06:09:44;;;;;;;3.13;2.10;;;23.00;62.60;;;;;;4963091;28;20030;-61
2022/08/17 06:12:15;;;;;;;4.03;2.33;;;23.00;62.70;;;;;;4958507;28;20495;-61
2022/08/17 06:14:53;;;;;;;3.72;2.08;;;23.00;62.70;;;;;;4958936;28;20185;-61
2022/08/17 06:17:20;;;;;;;4.25;2.20;;;23.00;62.60;;;;;;4965049;28;20050;-61
2022/08/17 06:19:50;;;;;;;2.53;2.00;;;23.00;62.60;;;;;;4962052;28;20023;-60
2022/08/17 06:22:18;;;;;;;3.03;2.00;;;23.00;62.60;;;;;;4977978;28;20023;-61
2022/08/17 06:25:14;;;;;;;2.20;1.92;;;23.00;62.60;;;;;;4964110;28;20037;-61
2022/08/17 06:27:50;;;;;;;3.22;1.98;;;23.00;62.60;;;;;;4958198;28;20031;-61
2022/08/17 06:30:27;;;;;;;3.95;2.13;;;23.00;62.50;;;;;;4959444;28;20037;-61
2022/08/17 06:32:55;;;;;;;2.70;2.08;;;23.00;62.60;;;;;;4984260;28;20022;-61
2022/08/17 06:35:32;;;;;;;3.70;2.17;;;23.00;62.60;;;;;;4983530;28;20043;-61
2022/08/17 06:38:00;;;;;;;2.88;2.00;;;23.00;62.50;;;;;;4947561;28;20042;-60
2022/08/17 06:40:37;;;;;;;3.67;2.05;;;23.00;62.50;;;;;;4963257;28;20035;-61
2022/08/17 06:43:24;;;;;;;2.80;1.90;;;23.00;62.60;;;;;;4964923;28;20027;-61
2022/08/17 06:46:02;;;;;;;2.67;2.00;;;23.00;62.70;;;;;;4966286;28;20042;-61
2022/08/17 06:48:51;;;;;;;3.15;2.00;;;23.00;62.60;;;;;;4968015;28;20035;-60
2022/08/17 06:51:30;;;;;;;3.70;2.33;;;23.00;62.60;;;;;;4962148;28;20039;-61
2022/08/17 06:54:01;;;;;;;3.05;2.00;;;23.00;62.60;;;;;;4966707;28;20063;-61
2022/08/17 06:56:52;;;;;;;3.03;2.10;;;23.00;62.50;;;;;;4961491;28;20026;-61
2022/08/17 06:59:20;;;;;;;3.00;1.90;;;22.90;62.60;;;;;;4956660;28;20567;-61
2022/08/17 07:01:46;;;;;;;3.28;2.20;;;23.00;62.60;;;;;;4981653;28;20039;-61
2022/08/17 07:04:20;;;;;;;3.55;2.08;;;22.90;62.50;;;;;;4966669;28;20070;-61
2022/08/17 07:06:49;;;;;;;3.72;2.08;;;23.00;62.50;;;;;;4982507;28;20074;-61
2022/08/17 07:09:34;;;;;;;2.80;1.90;;;22.90;62.60;;;;;;4949976;28;20022;-61
2022/08/17 07:12:14;;;;;;;3.00;2.00;;;22.90;62.60;;;;;;4964552;28;20035;-61
2022/08/17 07:14:55;;;;;;;3.78;2.03;;;22.90;62.60;;;;;;4964999;28;20044;-61
2022/08/17 07:17:21;;;;;;;2.88;1.85;;;22.90;62.50;;;;;;4961558;28;20058;-61
2022/08/17 07:19:48;;;;;;;2.65;1.90;;;22.90;62.40;;;;;;4965319;28;20035;-61
2022/08/17 07:22:52;;;;;;;2.17;1.80;;;22.90;62.60;;;;;;4964465;28;20023;-61
2022/08/17 07:25:18;;;;;;;4.40;2.00;;;22.90;62.40;;;;;;4984360;28;20480;-61
2022/08/17 07:27:49;;;;;;;3.13;2.00;;;22.90;62.40;;;;;;4966954;28;20033;-60
2022/08/17 07:30:30;;;;;;;2.90;2.10;;;22.90;62.60;;;;;;4961747;28;20031;-61
2022/08/17 07:33:20;;;;;;;3.38;2.00;;;22.90;62.40;;;;;;4966730;28;20054;-61
2022/08/17 07:35:47;;;;;;;3.63;2.05;;;22.90;62.40;;;;;;4958036;28;20782;-61
2022/08/17 07:38:22;;;;;;;2.85;1.80;;;22.90;62.50;;;;;;4962198;28;20058;-60
2022/08/17 07:41:00;;;;;;;2.35;1.90;;;22.90;62.50;;;;;;4962248;28;20121;-62
2022/08/17 07:43:35;;;;;;;2.45;1.80;;;22.90;62.50;;;;;;4966096;28;20046;-60
2022/08/17 07:49:02;;;;;;;3.17;2.08;;;22.90;62.60;;;;;;4964606;28;20038;-61
2022/08/17 07:51:30;;;;;;;2.58;1.80;;;22.90;62.40;;;;;;4966802;28;20033;-61
2022/08/17 07:53:58;;;;;;;3.08;2.10;;;22.90;63.60;;;;;;4962590;28;20482;-61
2022/08/17 07:56:53;;;;;;;2.88;2.00;;;22.90;62.50;;;;;;4963745;28;20117;-60
2022/08/17 07:59:20;;;;;;;2.50;2.03;;;22.90;62.60;;;;;;4954059;28;20040;-62
2022/08/17 08:02:02;;;;;;;3.15;1.90;;;22.90;62.50;;;;;;4976049;28;20049;-61
2022/08/17 08:04:38;;;;;;;2.45;1.75;;;22.90;62.60;;;;;;4973034;28;20215;-61
2022/08/17 08:07:13;;;;;;;3.00;2.05;;;22.90;62.50;;;;;;4958468;28;22031;-60
2022/08/17 08:09:41;;;;;;;3.05;1.95;;;22.90;62.50;;;;;;4972588;28;20035;-61
2022/08/17 08:12:32;;;;;;;2.42;1.90;;;22.90;62.60;;;;;;4972243;28;20138;-61
2022/08/17 08:15:16;;;;;;;2.10;1.60;;;22.90;62.60;;;;;;4908026;29;20134;-60
2022/08/17 08:17:50;;;;;;;3.53;2.13;;;22.90;62.60;;;;;;4906645;29;20127;-61
2022/08/17 08:20:16;;;;;;;2.85;1.90;;;22.90;62.60;;;;;;4908561;29;20084;-61
2022/08/17 08:23:14;;;;;;;2.72;1.88;;;22.90;62.60;;;;;;4900173;29;20032;-61
2022/08/17 08:26:14;;;;;;;5.80;2.00;;;22.90;63.00;;;;;;4904489;29;20063;-61
2022/08/17 08:28:46;;;;;;;3.97;2.03;;;22.90;63.00;;;;;;4834751;29;20152;-61
2022/08/17 08:31:23;;;;;;;4.80;1.90;;;23.00;63.10;;;;;;4835207;29;20057;-61
2022/08/17 08:33:59;;;;;;;4.85;2.00;;;23.00;63.10;;;;;;4829402;29;20396;-61
2022/08/17 08:36:50;;;;;;;3.00;1.90;;;23.00;63.10;;;;;;4831974;29;20771;-61
2022/08/17 08:39:29;;;;;;;3.50;2.10;;;23.10;63.20;;;;;;4837950;29;20038;-61
2022/08/17 08:42:06;;;;;;;3.85;2.10;;;23.10;63.10;;;;;;4841198;29;20029;-61
2022/08/17 08:45:01;;;;;;;4.35;2.03;;;23.10;62.80;;;;;;4851180;29;20499;-61
2022/08/17 08:47:36;;;;;;;2.53;1.80;;;23.20;63.30;;;;;;4855843;29;20040;-61
2022/08/17 08:50:03;;;;;;;;;;;23.20;63.00;;;;;;4841518;29;20045;-61
2022/08/17 08:52:34;;;;;;;5.65;2.42;;;23.20;62.70;;;;;;4891707;29;20002;-62
2022/08/17 08:55:06;;;;;;;7.85;3.78;;;23.20;62.90;;;;;;4893634;29;20394;-62
2022/08/17 08:57:35;;;;;;;10.05;4.35;;;23.20;63.10;;;;;;4906425;29;20060;-62
2022/08/17 09:00:13;;;;;;;10.52;4.75;;;23.20;63.10;;;;;;4907496;29;20679;-63
2022/08/17 09:03:05;;;;;;;12.10;5.15;;;23.20;63.10;;;;;;4909070;29;20517;-62
2022/08/17 09:05:39;;;;;;;11.15;5.22;;;23.20;62.90;;;;;;4966630;28;20058;-61
2022/08/17 09:08:27;;;;;;;9.45;4.53;;;23.10;63.20;;;;;;4961481;28;20089;-61
2022/08/17 09:11:17;;;;;;;10.45;4.45;;;23.10;63.10;;;;;;4944671;28;20203;-61
2022/08/17 09:13:49;;;;;;;11.63;4.03;;;23.20;63.40;;;;;;4979381;28;20031;-61
2022/08/17 09:16:19;;;;;;;10.57;4.20;;;23.20;63.80;;;;;;4959948;28;20381;-61
2022/08/17 09:18:53;;;;;;;11.55;3.85;;;23.20;63.60;;;;;;4983236;28;20027;-61
2022/08/17 09:21:39;;;;;;;10.23;3.97;;;23.20;63.50;;;;;;4980539;28;20035;-62
2022/08/17 09:24:10;;;;;;;9.93;3.58;;;23.20;63.30;;;;;;4970065;28;20031;-62
2022/08/17 09:27:07;;;;;;;6.18;3.58;;;23.20;63.50;;;;;;4983367;28;20061;-62
2022/08/17 09:29:35;;;;;;;10.50;4.07;;;23.20;63.60;;;;;;4964917;28;20028;-62
2022/08/17 09:32:14;;;;;;;9.60;4.18;;;23.20;63.50;;;;;;4981116;28;20522;-62
2022/08/17 09:34:48;;;;;;;9.98;4.10;;;23.30;63.50;;;;;;4977260;28;20062;-62
2022/08/17 09:37:34;;;;;;;10.05;4.22;;;23.30;63.50;;;;;;4960827;28;20022;-61
2022/08/17 09:40:09;;;;;;;8.18;3.60;;;23.20;63.20;;;;;;4964771;28;20031;-62
2022/08/17 09:42:48;;;;;;;7.93;3.70;;;23.20;63.20;;;;;;4962844;28;20031;-61
2022/08/17 09:45:41;;;;;;;9.80;3.88;;;23.20;63.30;;;;;;4984759;28;20034;-62
2022/08/17 09:48:21;;;;;;;10.38;3.97;;;23.20;63.20;;;;;;4959240;28;20027;-62
2022/08/17 09:50:54;;;;;;;9.60;3.80;;;23.20;63.30;;;;;;4982253;28;20030;-62
2022/08/17 09:53:20;;;;;;;7.18;3.72;;;23.20;63.20;;;;;;4980776;28;21124;-62
2022/08/17 09:56:07;;;;;;;8.23;3.78;;;23.30;63.30;;;;;;4961473;28;20590;-61
2022/08/17 09:59:12;;;;;;;8.48;4.25;;;23.30;63.30;;;;;;4956929;28;20460;-61
2022/08/17 10:01:41;;;;;;;8.80;3.90;;;23.30;63.20;;;;;;4958621;28;20027;-63
2022/08/17 10:04:25;;;;;;;6.72;3.85;;;23.30;63.20;;;;;;4957771;28;20034;-62
2022/08/17 10:07:01;;;;;;;9.45;4.00;;;23.30;63.20;;;;;;4961417;28;20053;-62
2022/08/17 10:09:38;;;;;;;9.30;3.95;;;23.30;63.00;;;;;;4985190;28;20030;-62
2022/08/17 10:12:25;;;;;;;6.07;3.50;;;23.30;62.90;;;;;;4962096;28;20034;-62
2022/08/17 10:15:15;;;;;;;9.50;4.03;;;23.30;63.00;;;;;;4962213;28;20035;-62
2022/08/17 10:18:11;;;;;;;7.65;3.80;;;23.30;63.00;;;;;;4962211;28;20534;-61
2022/08/17 10:26:11;;;;;;;9.23;4.00;;;23.30;62.80;;;;;;4961160;28;20440;-62
2022/08/17 10:26:33;;;;;;;7.93;4.00;;;23.30;62.80;;;;;;4976288;28;20422;-61
2022/08/17 10:29:26;;;;;;;9.18;4.03;;;23.30;62.80;;;;;;4981821;28;20031;-62
2022/08/17 10:32:00;;;;;;;10.93;4.32;;;23.30;62.70;;;;;;4958474;28;20500;-62
2022/08/17 10:37:27;;;;;;;9.77;4.30;;;23.30;62.70;;;;;;4784978;23;20152;-58
2022/08/17 10:40:01;;;;;;;8.80;4.65;;;23.40;62.80;;;;;;5002628;28;20038;-58
2022/08/17 10:42:28;;;;;;;9.93;5.28;;;23.40;62.90;;;;;;5001358;28;20551;-58
2022/08/17 10:45:02;;;;;;;10.88;4.68;;;23.40;62.80;;;;;;4999887;28;20029;-58
2022/08/17 10:48:06;;;;;;;7.90;4.47;;;23.40;63.40;;;;;;4998487;28;20022;-58
2022/08/17 10:50:54;;;;;;;10.82;5.53;;;23.40;63.30;;;;;;4964200;28;20030;-58
2022/08/17 10:53:32;;;;;;;9.90;5.60;;;23.40;63.80;;;;;;4949997;28;20055;-58
2022/08/17 10:56:12;;;;;;;10.20;5.22;;;23.50;64.60;;;;;;4962285;28;20518;-58
2022/08/17 10:58:52;;;;;;;10.93;6.20;;;23.50;64.10;;;;;;4965220;28;20038;-58
2022/08/17 11:01:43;;;;;;;12.68;5.65;;;23.50;63.70;;;;;;4961472;28;20038;-58
2022/08/17 11:04:17;;;;;;;13.50;7.65;;;23.60;64.30;;;;;;4933942;28;20035;-58
2022/08/17 11:07:05;;;;;;;14.13;8.75;;;23.50;64.20;;;;;;4960860;28;20031;-58
2022/08/17 11:10:15;;;;;;;15.60;9.38;;;23.50;63.70;;;;;;4960178;28;20042;-58
2022/08/17 11:13:00;;;;;;;13.30;9.05;;;23.50;63.90;;;;;;4887000;29;20047;-58
2022/08/17 11:15:49;;;;;;;12.95;8.30;;;23.50;63.90;;;;;;4883154;29;20057;-58
2022/08/17 11:18:23;;;;;;;12.55;7.63;;;23.50;63.80;;;;;;4887450;29;20032;-58
2022/08/17 11:21:06;;;;;;;12.98;7.30;;;23.50;63.90;;;;;;4889679;29;20028;-58
2022/08/17 11:24:13;;;;;;;11.80;7.03;;;23.60;64.10;;;;;;4893237;28;20044;-58
2022/08/17 11:26:46;;;;;;;11.80;6.90;;;23.60;63.80;;;;;;4927641;28;20035;-58
2022/08/17 11:29:26;;;;;;;11.75;6.45;;;23.60;64.10;;;;;;4923927;28;20043;-58
2022/08/17 11:32:12;;;;;;;13.10;7.30;;;23.60;63.00;;;;;;4912863;29;20067;-58
2022/08/17 11:34:41;;;;;;;26.15;16.17;;;23.60;63.50;;;;;;4911810;29;20051;-58
2022/08/17 11:37:25;;;;;;;35.63;21.77;;;23.50;64.30;;;;;;4909180;29;20043;-58
2022/08/17 11:40:09;;;;;;;41.42;24.50;;;23.30;64.70;;;;;;4941649;28;20497;-58
2022/08/17 11:42:38;;;;;;;37.15;22.42;;;23.30;65.10;;;;;;4938885;28;20043;-59
2022/08/17 11:45:44;;;;;;;38.03;22.15;;;23.30;65.10;;;;;;4947084;28;20035;-59
2022/08/17 11:51:34;;;;;;;40.10;23.33;;;23.20;65.30;;;;;;5002757;28;20065;-59
2022/08/17 11:54:05;;;;;;;41.95;23.40;;;23.20;65.80;;;;;;5001649;28;20050;-59
2022/08/17 11:56:47;;;;;;;40.92;22.48;;;23.20;65.90;;;;;;4998984;28;20022;-59
2022/08/17 11:59:44;;;;;;;38.38;21.50;;;23.20;66.20;;;;;;5000998;28;20052;-59
2022/08/17 12:02:33;;;;;;;31.83;18.65;;;23.20;66.20;;;;;;4982620;28;21309;-59
2022/08/17 12:05:02;;;;;;;36.17;19.40;;;23.20;66.20;;;;;;4982986;28;20084;-59
2022/08/17 12:07:30;;;;;;;33.35;17.80;;;23.20;66.40;;;;;;4985420;28;20039;-59
2022/08/17 12:09:57;;;;;;;25.15;17.45;;;23.10;66.10;;;;;;4983029;28;20038;-59
2022/08/17 12:12:32;;;;;;;27.27;16.45;;;23.10;66.30;;;;;;4939424;28;20038;-59
2022/08/17 12:14:59;;;;;;;27.02;15.05;;;23.10;66.00;;;;;;4949400;28;20047;-59
2022/08/17 12:17:27;;;;;;;23.52;15.80;;;23.10;66.00;;;;;;4966979;28;20110;-59
2022/08/17 12:19:53;;;;;;;32.88;15.77;;;23.10;66.00;;;;;;4981235;28;20046;-58
2022/08/17 12:22:25;;;;;;;27.73;15.48;;;23.00;66.00;;;;;;4965282;28;20122;-59
2022/08/17 12:25:09;;;;;;;23.42;15.73;;;23.00;65.80;;;;;;4964529;28;20526;-59
2022/08/17 12:27:37;;;;;;;26.90;14.95;;;23.00;66.00;;;;;;4981121;28;20077;-58
2022/08/17 12:30:09;;;;;;;23.33;14.88;;;23.00;66.30;;;;;;4963617;28;20038;-58
2022/08/17 12:32:35;;;;;;;26.85;14.00;;;23.00;66.20;;;;;;4983794;28;20053;-59
2022/08/17 12:35:02;;;;;;;20.60;14.23;;;23.00;66.10;;;;;;4965207;28;20117;-59
2022/08/17 12:37:30;;;;;;;23.30;13.48;;;23.00;65.90;;;;;;4965118;28;20046;-59
2022/08/17 12:39:56;;;;;;;24.20;13.45;;;23.00;67.10;;;;;;5000377;28;20026;-58
2022/08/17 12:42:30;;;;;;;26.50;13.75;;;23.00;66.10;;;;;;5000628;28;20030;-58
2022/08/17 12:44:56;;;;;;;22.20;13.00;;;23.00;66.10;;;;;;5001669;28;20052;-59
2022/08/17 12:47:22;;;;;;;23.58;14.18;;;23.10;66.20;;;;;;4999305;28;20036;-58
2022/08/17 12:50:04;;;;;;;21.58;14.15;;;23.00;66.60;;;;;;4997385;28;20026;-59
2022/08/17 12:52:31;;;;;;;22.77;15.10;;;22.90;66.90;;;;;;4999790;28;20387;-59
2022/08/17 12:55:01;;;;;;;23.83;15.05;;;23.00;67.10;;;;;;4999255;28;20138;-59
2022/08/17 12:57:45;;;;;;;24.83;15.10;;;22.90;67.50;;;;;;5002702;28;20497;-59
2022/08/17 13:00:15;;;;;;;28.23;18.13;;;22.90;67.60;;;;;;4999905;28;20029;-59
2022/08/17 13:02:52;;;;;;;28.05;18.20;;;22.80;68.00;;;;;;4997332;28;20030;-59
2022/08/17 13:05:26;;;;;;;27.65;18.10;;;22.80;68.10;;;;;;5001184;28;20037;-59
2022/08/17 13:07:52;;;;;;;24.65;17.08;;;22.90;68.10;;;;;;5000315;28;20081;-59
2022/08/17 13:10:20;;;;;;;23.73;15.63;;;22.90;68.00;;;;;;4996991;28;20041;-60
2022/08/17 13:12:46;;;;;;;26.45;16.17;;;23.00;67.50;;;;;;4998503;28;20035;-59
2022/08/17 13:15:33;;;;;;;30.55;16.83;;;23.00;67.60;;;;;;4998530;28;20049;-60
2022/08/17 13:18:28;;;;;;;22.35;14.80;;;23.10;67.40;;;;;;4997824;28;20069;-60
2022/08/17 13:20:55;;;;;;;21.25;12.13;;;23.20;66.80;;;;;;4993277;28;20111;-60
2022/08/17 13:23:20;;;;;;;17.65;10.70;;;23.20;66.30;;;;;;4982676;28;20442;-60
2022/08/17 13:26:05;;;;;;;17.60;11.82;;;23.30;66.00;;;;;;4995854;28;20027;-60
2022/08/17 13:28:31;;;;;;;20.00;11.63;;;23.30;66.20;;;;;;4997020;28;20018;-60
2022/08/17 13:31:27;;;;;;;18.10;10.65;;;23.40;66.10;;;;;;4995203;28;20075;-60
2022/08/17 13:34:12;;;;;;;16.92;10.23;;;23.30;65.90;;;;;;5002998;28;20445;-60
2022/08/17 13:36:38;;;;;;;17.40;9.80;;;23.40;65.90;;;;;;4998354;28;20014;-60
2022/08/17 13:39:13;;;;;;;15.05;9.68;;;23.40;65.60;;;;;;5002117;28;20069;-60